Time;durP1;ratioP1;P1;durP2;ratioP2;P2;SDS_P1;SDS_P2;PMS_P1;PMS_P2;Temp;Humidity;BMP_temperature;BMP_pressure;BME280_temperature;BME280_humidity;BME280_pressure;Samples;Min_cycle;Max_cycle;Signal;HPM_P1;HPM_P2
2021/12/08 00:00:32;;;;;;;5.13;2.30;;;;;;;;;;5115472;28;20043;-67
2021/12/08 00:03:00;;;;;;;10.00;2.60;;;;;;;;;;5119128;28;20035;-67
2021/12/08 00:05:27;;;;;;;10.70;2.47;;;;;;;;;;5124222;28;20039;-67
2021/12/08 00:07:53;;;;;;;4.70;2.33;;;;;;;;;;5119195;28;20048;-67
2021/12/08 00:13:02;;;;;;;8.48;2.63;;;;;;;;;;5122957;28;20130;-68
2021/12/08 00:15:30;;;;;;;10.00;2.63;;;;;;;;;;5119207;28;20039;-67
2021/12/08 00:17:56;;;;;;;11.05;2.80;;;;;;;;;;5122332;28;20046;-68
2021/12/08 00:20:23;;;;;;;9.90;2.80;;;;;;;;;;5119526;28;20560;-68
2021/12/08 00:22:49;;;;;;;9.63;2.45;;;;;;;;;;5123261;28;20040;-67
2021/12/08 00:25:15;;;;;;;6.03;2.75;;;;;;;;;;5096379;28;20097;-68
2021/12/08 00:27:41;;;;;;;7.15;2.63;;;;;;;;;;5097780;28;20127;-67
2021/12/08 00:30:08;;;;;;;8.13;2.67;;;;;;;;;;5094281;28;20074;-67
2021/12/08 00:32:36;;;;;;;6.50;2.42;;;;;;;;;;5112922;28;20396;-67
2021/12/08 00:35:03;;;;;;;8.52;2.67;;;;;;;;;;5118413;28;20049;-67
2021/12/08 00:37:29;;;;;;;6.18;2.45;;;;;;;;;;5113462;28;20092;-67
2021/12/08 00:39:56;;;;;;;6.57;2.78;;;;;;;;;;5111475;28;20043;-67
2021/12/08 00:42:22;;;;;;;9.52;2.85;;;;;;;;;;5109539;28;20078;-68
2021/12/08 00:44:49;;;;;;;9.43;2.53;;;;;;;;;;5110445;28;20044;-67
2021/12/08 00:47:15;;;;;;;9.77;2.70;;;;;;;;;;5119500;28;20505;-67
2021/12/08 00:49:41;;;;;;;8.60;2.78;;;;;;;;;;5114357;27;20342;-67
2021/12/08 00:52:07;;;;;;;10.27;2.65;;;;;;;;;;5116805;27;20071;-67
2021/12/08 00:54:34;;;;;;;5.85;2.90;;;;;;;;;;5122419;27;20049;-67
2021/12/08 00:57:01;;;;;;;6.35;2.42;;;;;;;;;;5115328;27;20032;-67
2021/12/08 00:59:27;;;;;;;6.32;2.92;;;;;;;;;;5120437;27;20118;-67
2021/12/08 01:01:54;;;;;;;4.88;2.22;;;;;;;;;;5112592;27;20088;-67
2021/12/08 01:04:20;;;;;;;6.50;2.80;;;;;;;;;;5114019;27;20484;-67
2021/12/08 01:06:46;;;;;;;6.55;2.30;;;;;;;;;;5119491;27;20484;-67
2021/12/08 01:09:15;;;;;;;9.10;2.83;;;;;;;;;;5115076;27;20081;-67
2021/12/08 01:11:41;;;;;;;11.13;3.53;;;;;;;;;;5111315;27;20054;-67
2021/12/08 01:14:08;;;;;;;8.73;3.00;;;;;;;;;;5115363;27;20036;-68
2021/12/08 01:16:34;;;;;;;8.43;3.15;;;;;;;;;;5120063;27;20488;-67
2021/12/08 01:19:00;;;;;;;8.48;2.80;;;;;;;;;;5109818;27;20065;-67
2021/12/08 01:21:26;;;;;;;7.68;2.83;;;;;;;;;;5116553;27;20075;-67
2021/12/08 01:23:52;;;;;;;7.97;3.67;;;;;;;;;;5117092;27;20035;-68
2021/12/08 01:26:19;;;;;;;8.32;2.80;;;;;;;;;;5117095;27;20059;-67
2021/12/08 01:28:45;;;;;;;5.25;2.70;;;;;;;;;;5111562;27;20040;-67
2021/12/08 01:31:11;;;;;;;6.97;2.50;;;;;;;;;;5109218;27;20096;-67
2021/12/08 01:33:37;;;;;;;5.80;2.75;;;;;;;;;;5113964;27;20452;-67
2021/12/08 01:36:04;;;;;;;7.88;2.70;;;;;;;;;;5115010;27;20072;-67
2021/12/08 01:38:31;;;;;;;10.02;3.00;;;;;;;;;;5109499;27;20051;-68
2021/12/08 01:40:57;;;;;;;10.82;3.00;;;;;;;;;;5115939;27;20145;-67
2021/12/08 01:43:29;;;;;;;5.63;2.65;;;;;;;;;;5111890;27;20793;-68
2021/12/08 01:46:00;;;;;;;9.02;2.75;;;;;;;;;;5111067;27;20042;-67
2021/12/08 01:48:28;;;;;;;6.50;2.55;;;;;;;;;;5112067;27;20047;-67
2021/12/08 01:50:56;;;;;;;7.93;2.55;;;;;;;;;;5113226;27;20035;-67
2021/12/08 01:53:23;;;;;;;7.22;2.50;;;;;;;;;;5121449;27;20134;-67
2021/12/08 01:55:50;;;;;;;6.07;2.58;;;;;;;;;;5118479;27;20047;-67
2021/12/08 01:58:16;;;;;;;9.13;2.75;;;;;;;;;;5117912;27;20040;-67
2021/12/08 02:00:46;;;;;;;5.15;2.53;;;;;;;;;;5117247;27;20031;-67
2021/12/08 02:03:12;;;;;;;7.72;2.90;;;;;;;;;;5114186;27;20055;-67
2021/12/08 02:05:39;;;;;;;8.57;2.53;;;;;;;;;;5116642;27;20039;-68
2021/12/08 02:08:06;;;;;;;6.80;3.17;;;;;;;;;;5113218;27;20068;-67
2021/12/08 02:10:32;;;;;;;6.07;2.67;;;;;;;;;;5110936;27;20400;-67
2021/12/08 02:12:58;;;;;;;6.15;2.55;;;;;;;;;;5112157;27;20039;-67
2021/12/08 02:15:25;;;;;;;6.47;2.60;;;;;;;;;;5113696;27;20476;-67
2021/12/08 02:17:52;;;;;;;7.25;2.83;;;;;;;;;;5116756;27;20043;-72
2021/12/08 02:20:19;;;;;;;6.18;2.75;;;;;;;;;;5098958;27;20053;-67
2021/12/08 02:22:45;;;;;;;6.68;2.67;;;;;;;;;;5117357;27;20035;-67
2021/12/08 02:25:14;;;;;;;5.82;2.70;;;;;;;;;;5112375;27;20043;-67
2021/12/08 02:27:40;;;;;;;6.55;2.75;;;;;;;;;;5122362;27;20079;-66
2021/12/08 02:30:17;;;;;;;6.88;3.17;;;;;;;;;;5113031;27;20051;-66
2021/12/08 02:48:56;;;;;;;6.15;3.70;;;;;;;;;;5110955;27;20134;-67
2021/12/08 02:51:22;;;;;;;8.38;2.72;;;;;;;;;;5117286;27;20122;-67
2021/12/08 02:53:49;;;;;;;7.28;2.88;;;;;;;;;;5115418;27;20389;-67
2021/12/08 02:56:16;;;;;;;5.93;2.85;;;;;;;;;;5112594;27;20484;-67
2021/12/08 02:58:42;;;;;;;5.43;2.50;;;;;;;;;;5112620;27;20047;-67
2021/12/08 03:01:10;;;;;;;7.57;2.63;;;;;;;;;;5115074;27;20036;-67
2021/12/08 03:03:36;;;;;;;10.23;2.60;;;;;;;;;;5118345;27;20043;-67
2021/12/08 03:06:03;;;;;;;6.35;3.10;;;;;;;;;;5120245;27;20300;-67
2021/12/08 03:08:29;;;;;;;8.60;3.15;;;;;;;;;;5115269;27;20559;-67
2021/12/08 03:10:55;;;;;;;7.43;3.78;;;;;;;;;;5125133;27;20039;-67
2021/12/08 03:13:30;;;;;;;6.28;3.10;;;;;;;;;;5113548;27;20036;-67
2021/12/08 03:15:57;;;;;;;5.63;3.00;;;;;;;;;;5106525;27;20044;-67
2021/12/08 03:18:31;;;;;;;6.93;3.20;;;;;;;;;;5094581;27;20039;-67
2021/12/08 03:20:57;;;;;;;12.13;3.80;;;;;;;;;;5105853;27;20043;-67
2021/12/08 03:23:30;;;;;;;11.48;4.05;;;;;;;;;;5108561;27;20161;-67
2021/12/08 03:25:58;;;;;;;7.35;3.50;;;;;;;;;;5115903;27;20113;-67
2021/12/08 03:28:30;;;;;;;8.20;3.70;;;;;;;;;;5107308;27;20052;-67
2021/12/08 03:31:04;;;;;;;7.07;3.35;;;;;;;;;;5108889;27;20416;-68
2021/12/08 03:33:30;;;;;;;9.15;4.13;;;;;;;;;;5111060;27;20500;-67
2021/12/08 03:35:56;;;;;;;7.43;3.55;;;;;;;;;;5113897;27;20036;-67
2021/12/08 03:38:23;;;;;;;6.05;3.78;;;;;;;;;;5113548;27;20484;-67
2021/12/08 03:40:50;;;;;;;5.80;3.85;;;;;;;;;;5115361;27;20125;-67
2021/12/08 03:43:16;;;;;;;8.98;4.70;;;;;;;;;;5121631;27;20066;-67
2021/12/08 03:45:45;;;;;;;10.23;4.85;;;;;;;;;;5121686;28;20118;-67
2021/12/08 03:48:14;;;;;;;5.93;3.72;;;;;;;;;;5120650;28;20047;-67
2021/12/08 03:50:41;;;;;;;7.55;4.28;;;;;;;;;;5114797;28;20067;-67
2021/12/08 03:53:12;;;;;;;11.38;4.43;;;;;;;;;;5118753;28;20079;-67
2021/12/08 03:55:38;;;;;;;9.90;4.40;;;;;;;;;;5111410;28;20979;-67
2021/12/08 03:58:05;;;;;;;12.32;4.38;;;;;;;;;;5111476;28;20054;-67
2021/12/08 04:00:31;;;;;;;7.75;4.85;;;;;;;;;;5120260;28;20434;-67
2021/12/08 04:02:58;;;;;;;7.53;5.10;;;;;;;;;;5097749;28;20043;-67
2021/12/08 04:05:39;;;;;;;8.55;5.18;;;;;;;;;;5098142;28;20043;-67
2021/12/08 04:08:14;;;;;;;10.20;5.70;;;;;;;;;;5119345;28;20068;-67
2021/12/08 04:10:41;;;;;;;14.50;6.22;;;;;;;;;;5109841;28;20733;-67
2021/12/08 04:13:07;;;;;;;9.13;5.57;;;;;;;;;;5096963;28;20044;-67
2021/12/08 04:15:33;;;;;;;11.65;6.03;;;;;;;;;;5114063;28;20392;-68
2021/12/08 04:17:59;;;;;;;14.50;5.95;;;;;;;;;;5116695;28;20184;-67
2021/12/08 04:20:29;;;;;;;11.38;5.50;;;;;;;;;;5120230;28;20039;-67
2021/12/08 04:22:56;;;;;;;9.38;5.85;;;;;;;;;;5118940;28;20480;-68
2021/12/08 04:25:25;;;;;;;10.00;6.20;;;;;;;;;;5118040;27;20092;-67
2021/12/08 04:27:52;;;;;;;10.80;5.13;;;;;;;;;;5115025;27;20047;-72
2021/12/08 04:30:22;;;;;;;10.30;5.10;;;;;;;;;;5121721;27;20039;-68
2021/12/08 04:32:49;;;;;;;7.40;5.40;;;;;;;;;;5122111;27;20545;-68
2021/12/08 04:35:18;;;;;;;7.72;5.40;;;;;;;;;;5123230;27;20035;-68
2021/12/08 04:37:47;;;;;;;8.55;5.38;;;;;;;;;;5118176;27;20462;-68
2021/12/08 04:40:27;;;;;;;11.52;5.07;;;;;;;;;;5118026;27;20438;-68
2021/12/08 04:43:10;;;;;;;10.23;6.07;;;;;;;;;;5121296;27;20059;-68
2021/12/08 04:45:51;;;;;;;9.77;5.75;;;;;;;;;;5121177;27;20096;-68
2021/12/08 04:51:16;;;;;;;9.88;5.28;;;;;;;;;;5124842;27;20043;-68
2021/12/08 04:54:03;;;;;;;10.65;5.18;;;;;;;;;;5120802;27;20069;-68
2021/12/08 05:04:55;;;;;;;8.77;5.28;;;;;;;;;;5101881;27;20043;-67
2021/12/08 05:07:47;;;;;;;12.80;5.18;;;;;;;;;;5120093;27;20035;-68
2021/12/08 05:10:16;;;;;;;11.90;4.65;;;;;;;;;;5114266;27;20036;-67
2021/12/08 05:12:44;;;;;;;7.80;4.80;;;;;;;;;;5122966;27;20133;-67
2021/12/08 05:15:15;;;;;;;13.45;5.00;;;;;;;;;;5115689;27;20548;-67
2021/12/08 05:17:44;;;;;;;15.85;6.00;;;;;;;;;;5117037;27;20286;-68
2021/12/08 05:20:17;;;;;;;6.53;4.57;;;;;;;;;;5114223;27;20035;-68
2021/12/08 05:22:46;;;;;;;10.75;4.80;;;;;;;;;;5122494;27;20548;-68
2021/12/08 05:25:14;;;;;;;10.15;4.82;;;;;;;;;;5117514;27;20031;-67
2021/12/08 05:27:46;;;;;;;10.35;4.90;;;;;;;;;;5117953;27;20035;-67
2021/12/08 05:30:13;;;;;;;7.78;4.70;;;;;;;;;;5103707;27;20475;-67
2021/12/08 05:32:40;;;;;;;6.95;4.20;;;;;;;;;;5120804;27;20092;-67
2021/12/08 05:35:08;;;;;;;10.30;4.63;;;;;;;;;;5119518;27;20043;-67
2021/12/08 05:37:34;;;;;;;10.73;4.80;;;;;;;;;;5121009;27;20059;-67
2021/12/08 05:40:00;;;;;;;10.48;4.72;;;;;;;;;;5113293;27;20107;-67
2021/12/08 05:42:29;;;;;;;7.45;4.43;;;;;;;;;;5117481;27;20078;-68
2021/12/08 05:44:55;;;;;;;8.60;5.07;;;;;;;;;;5121642;27;20056;-67
2021/12/08 05:47:23;;;;;;;14.43;5.45;;;;;;;;;;5119273;27;20044;-72
2021/12/08 05:49:50;;;;;;;12.93;4.15;;;;;;;;;;5120378;27;20110;-67
2021/12/08 05:52:16;;;;;;;7.93;4.40;;;;;;;;;;5094599;27;20481;-66
2021/12/08 05:54:44;;;;;;;10.02;4.78;;;;;;;;;;5112540;27;20054;-69
2021/12/08 05:57:12;;;;;;;9.88;4.82;;;;;;;;;;5111357;27;20187;-69
2021/12/08 05:59:38;;;;;;;6.70;4.27;;;;;;;;;;5118310;27;20551;-69
2021/12/08 06:02:08;;;;;;;9.00;4.63;;;;;;;;;;5117834;27;20288;-68
2021/12/08 06:04:35;;;;;;;8.30;4.65;;;;;;;;;;5119808;27;20074;-69
2021/12/08 06:07:03;;;;;;;16.27;4.50;;;;;;;;;;5099568;27;20118;-67
2021/12/08 06:09:30;;;;;;;11.60;3.97;;;;;;;;;;5113838;27;20050;-69
2021/12/08 06:11:57;;;;;;;8.23;4.65;;;;;;;;;;5115130;27;20044;-70
2021/12/08 06:14:31;;;;;;;9.45;4.30;;;;;;;;;;5114954;27;20163;-68
2021/12/08 06:16:57;;;;;;;8.43;3.83;;;;;;;;;;5117849;27;20492;-68
2021/12/08 06:19:23;;;;;;;10.23;3.92;;;;;;;;;;5099635;27;20043;-68
2021/12/08 06:21:50;;;;;;;8.68;4.53;;;;;;;;;;5094520;28;20056;-68
2021/12/08 06:24:17;;;;;;;7.28;3.75;;;;;;;;;;5100655;27;20039;-66
2021/12/08 06:26:44;;;;;;;6.63;3.80;;;;;;;;;;5114957;27;20069;-70
2021/12/08 06:29:11;;;;;;;6.15;3.45;;;;;;;;;;5123723;27;20183;-73
2021/12/08 06:31:38;;;;;;;9.75;4.00;;;;;;;;;;5095586;28;20113;-69
2021/12/08 06:34:05;;;;;;;7.63;3.50;;;;;;;;;;5115944;27;20035;-71
2021/12/08 06:36:36;;;;;;;6.82;3.80;;;;;;;;;;5119114;27;20126;-70
2021/12/08 06:39:04;;;;;;;11.35;6.38;;;;;;;;;;5121151;27;20049;-71
2021/12/08 06:41:34;;;;;;;7.38;3.65;;;;;;;;;;5127252;27;20110;-71
2021/12/08 06:44:04;;;;;;;6.60;3.50;;;;;;;;;;5131799;27;20051;-71
2021/12/08 06:46:31;;;;;;;7.95;3.10;;;;;;;;;;5131021;27;20030;-71
2021/12/08 06:48:58;;;;;;;6.28;3.13;;;;;;;;;;5126896;27;20042;-70
2021/12/08 06:51:29;;;;;;;7.13;2.75;;;;;;;;;;5107246;27;20085;-71
2021/12/08 06:54:00;;;;;;;5.95;2.90;;;;;;;;;;5110782;27;20173;-71
2021/12/08 06:56:31;;;;;;;8.13;3.08;;;;;;;;;;5120361;27;20044;-71
2021/12/08 06:58:59;;;;;;;11.77;3.75;;;;;;;;;;5125031;27;20540;-71
2021/12/08 07:01:45;;;;;;;10.55;2.88;;;;;;;;;;5129412;27;20153;-70
2021/12/08 07:06:58;;;;;;;6.47;2.80;;;;;;;;;;5106551;27;20531;-71
2021/12/08 07:09:31;;;;;;;5.82;3.08;;;;;;;;;;5120046;27;20046;-71
2021/12/08 07:11:59;;;;;;;7.07;2.40;;;;;;;;;;5117229;27;20043;-72
2021/12/08 07:14:26;;;;;;;11.45;3.72;;;;;;;;;;5110708;27;20039;-71
2021/12/08 07:16:53;;;;;;;9.10;2.47;;;;;;;;;;5109664;27;20474;-72
2021/12/08 07:19:32;;;;;;;4.72;2.25;;;;;;;;;;5107290;27;20039;-71
2021/12/08 07:21:58;;;;;;;7.57;2.30;;;;;;;;;;5106393;27;20035;-71
2021/12/08 07:24:27;;;;;;;5.03;2.25;;;;;;;;;;5124862;27;20092;-72
2021/12/08 07:26:58;;;;;;;9.88;2.20;;;;;;;;;;5124291;27;20035;-72
2021/12/08 07:29:27;;;;;;;5.88;1.88;;;;;;;;;;5124440;27;20039;-71
2021/12/08 07:31:56;;;;;;;8.70;1.80;;;;;;;;;;5107906;27;20424;-71
2021/12/08 07:34:23;;;;;;;8.27;2.33;;;;;;;;;;5114117;27;20040;-72
2021/12/08 07:36:52;;;;;;;9.27;2.10;;;;;;;;;;5120026;27;20043;-71
2021/12/08 07:39:21;;;;;;;4.28;1.85;;;;;;;;;;5106112;28;20095;-71
2021/12/08 07:41:52;;;;;;;7.57;1.85;;;;;;;;;;5124486;27;20039;-72
2021/12/08 07:44:19;;;;;;;8.32;2.10;;;;;;;;;;5109797;27;20047;-71
2021/12/08 07:46:47;;;;;;;6.70;1.85;;;;;;;;;;5087454;28;20043;-72
2021/12/08 07:49:17;;;;;;;6.40;1.92;;;;;;;;;;5122895;28;20042;-71
2021/12/08 07:51:46;;;;;;;9.48;1.90;;;;;;;;;;5105820;28;20049;-71
2021/12/08 07:54:13;;;;;;;13.75;2.30;;;;;;;;;;5108807;28;20092;-72
2021/12/08 07:56:40;;;;;;;5.13;1.77;;;;;;;;;;5124302;28;20484;-72
2021/12/08 07:59:08;;;;;;;8.77;2.10;;;;;;;;;;5125437;27;20860;-72
2021/12/08 08:01:37;;;;;;;7.63;2.40;;;;;;;;;;5127654;27;20536;-72
2021/12/08 08:04:03;;;;;;;;;;;;;;;;;;5128732;27;20039;-72
2021/12/08 08:06:33;;;;;;;5.60;1.70;;;;;;;;;;5128641;27;20060;-71
2021/12/08 08:08:59;;;;;;;8.77;1.48;;;;;;;;;;5128316;27;20035;-72
2021/12/08 08:11:28;;;;;;;3.83;1.65;;;;;;;;;;5125250;27;20051;-72
2021/12/08 08:13:55;;;;;;;4.35;1.48;;;;;;;;;;5114912;27;20039;-71
2021/12/08 08:16:24;;;;;;;8.65;1.85;;;;;;;;;;5128069;27;20399;-73
2021/12/08 08:18:56;;;;;;;11.55;1.88;;;;;;;;;;5128440;27;20488;-71
2021/12/08 08:21:24;;;;;;;7.03;1.73;;;;;;;;;;5097989;27;20043;-72
2021/12/08 08:23:50;;;;;;;9.27;1.55;;;;;;;;;;5117424;27;20080;-72
2021/12/08 08:26:17;;;;;;;4.00;1.15;;;;;;;;;;5110428;27;20040;-71
2021/12/08 08:28:48;;;;;;;6.50;1.50;;;;;;;;;;5109808;27;20043;-71
2021/12/08 08:31:17;;;;;;;6.15;1.27;;;;;;;;;;5116812;27;20039;-72
2021/12/08 08:33:44;;;;;;;8.65;1.38;;;;;;;;;;5119767;27;20043;-71
2021/12/08 08:36:12;;;;;;;4.78;1.60;;;;;;;;;;5127769;27;20052;-72
2021/12/08 08:38:42;;;;;;;6.70;1.55;;;;;;;;;;5109285;27;20095;-71
2021/12/08 08:41:11;;;;;;;6.60;1.45;;;;;;;;;;5119360;27;20097;-72
2021/12/08 08:43:37;;;;;;;;;;;;;;;;;;5110104;27;20058;-71
2021/12/08 08:46:09;;;;;;;6.43;1.20;;;;;;;;;;5119646;27;19998;-71
2021/12/08 08:48:38;;;;;;;9.13;2.08;;;;;;;;;;5126615;27;20344;-72
2021/12/08 08:51:10;;;;;;;9.85;1.40;;;;;;;;;;5126474;27;20035;-72
2021/12/08 08:53:37;;;;;;;5.57;1.23;;;;;;;;;;5111280;27;20126;-72
2021/12/08 08:56:06;;;;;;;6.97;1.30;;;;;;;;;;5116596;27;20144;-72
2021/12/08 08:58:34;;;;;;;4.32;1.27;;;;;;;;;;5112577;27;20085;-72
2021/12/08 09:01:08;;;;;;;5.30;1.23;;;;;;;;;;5102075;27;20047;-72
2021/12/08 09:03:36;;;;;;;15.30;1.42;;;;;;;;;;5126093;27;20134;-71
2021/12/08 09:06:08;;;;;;;6.22;1.25;;;;;;;;;;5109024;27;20031;-72
2021/12/08 09:08:35;;;;;;;13.60;1.63;;;;;;;;;;5111600;27;20159;-71
2021/12/08 09:11:06;;;;;;;9.00;1.30;;;;;;;;;;5119095;27;20040;-72
2021/12/08 09:13:35;;;;;;;5.70;1.60;;;;;;;;;;5117115;27;20488;-71
2021/12/08 09:16:05;;;;;;;11.35;2.30;;;;;;;;;;5111380;27;20489;-72
2021/12/08 09:18:38;;;;;;;9.68;1.67;;;;;;;;;;5108365;27;20044;-72
2021/12/08 09:21:15;;;;;;;11.38;2.10;;;;;;;;;;5122487;27;20126;-72
2021/12/08 09:23:48;;;;;;;7.97;1.58;;;;;;;;;;5108989;27;20437;-72
2021/12/08 09:26:15;;;;;;;6.60;2.08;;;;;;;;;;5108763;27;20843;-72
2021/12/08 09:28:45;;;;;;;8.20;1.50;;;;;;;;;;5118998;27;20043;-72
2021/12/08 09:31:17;;;;;;;8.02;2.10;;;;;;;;;;5122738;27;20382;-72
2021/12/08 09:33:50;;;;;;;8.52;1.80;;;;;;;;;;5109862;27;20040;-72
2021/12/08 09:36:19;;;;;;;8.35;1.67;;;;;;;;;;5109425;27;20039;-72
2021/12/08 09:38:48;;;;;;;16.10;2.45;;;;;;;;;;5120203;27;20043;-72
2021/12/08 09:41:17;;;;;;;9.65;2.05;;;;;;;;;;5115011;27;20041;-72
2021/12/08 09:43:43;;;;;;;;;;;;;;;;;;5116422;27;20446;-72
2021/12/08 09:46:11;;;;;;;5.90;1.40;;;;;;;;;;5109772;27;19927;-72
2021/12/08 09:48:38;;;;;;;7.97;1.70;;;;;;;;;;5090769;27;20118;-72
2021/12/08 09:51:05;;;;;;;9.85;2.15;;;;;;;;;;5126625;27;20054;-72
2021/12/08 09:53:33;;;;;;;10.13;2.08;;;;;;;;;;5126488;27;20723;-73
2021/12/08 09:55:59;;;;;;;;;;;;;;;;;;5126419;27;20054;-73
2021/12/08 09:58:26;;;;;;;8.15;2.10;;;;;;;;;;5125917;27;20010;-73
2021/12/08 10:00:55;;;;;;;9.35;2.22;;;;;;;;;;5126201;27;20042;-73
2021/12/08 10:03:21;;;;;;;14.38;2.38;;;;;;;;;;5125383;27;20043;-73
2021/12/08 10:05:48;;;;;;;11.27;2.85;;;;;;;;;;5124096;27;20062;-73
2021/12/08 10:08:14;;;;;;;8.63;3.25;;;;;;;;;;5111323;27;20407;-72
2021/12/08 10:10:42;;;;;;;12.52;1.85;;;;;;;;;;5120425;27;20540;-73
2021/12/08 10:13:09;;;;;;;9.68;2.67;;;;;;;;;;5107999;27;20086;-73
2021/12/08 10:15:35;;;;;;;8.93;1.77;;;;;;;;;;5107075;27;20164;-73
2021/12/08 10:18:01;;;;;;;12.65;2.15;;;;;;;;;;5124893;27;20039;-73
2021/12/08 10:20:31;;;;;;;9.63;2.00;;;;;;;;;;5125857;27;20095;-73
2021/12/08 10:23:14;;;;;;;11.57;2.05;;;;;;;;;;5123385;27;20434;-73
2021/12/08 10:25:45;;;;;;;7.18;1.90;;;;;;;;;;5095566;28;20092;-73
2021/12/08 10:28:13;;;;;;;7.20;1.90;;;;;;;;;;5111299;27;20574;-73
2021/12/08 10:30:46;;;;;;;6.10;1.77;;;;;;;;;;5112051;27;20115;-73
2021/12/08 10:33:35;;;;;;;7.88;1.83;;;;;;;;;;5117570;27;20043;-73
2021/12/08 10:36:05;;;;;;;20.42;2.47;;;;;;;;;;5115361;27;20373;-73
2021/12/08 10:38:39;;;;;;;7.32;1.70;;;;;;;;;;5101407;27;20106;-73
2021/12/08 10:41:06;;;;;;;7.07;1.80;;;;;;;;;;5113916;27;20070;-73
2021/12/08 10:43:33;;;;;;;9.52;1.75;;;;;;;;;;5111445;27;20051;-73
2021/12/08 10:46:01;;;;;;;6.90;2.13;;;;;;;;;;5108963;27;20551;-73
2021/12/08 10:48:33;;;;;;;7.07;1.55;;;;;;;;;;5108600;27;20393;-73
2021/12/08 10:56:37;;;;;;;7.57;2.10;;;;;;;;;;5089111;28;20500;-73
2021/12/08 10:59:03;;;;;;;6.55;2.00;;;;;;;;;;5107180;27;20040;-73
2021/12/08 11:01:30;;;;;;;7.90;1.90;;;;;;;;;;5124094;27;20043;-73
2021/12/08 11:04:02;;;;;;;7.95;2.25;;;;;;;;;;5124123;27;20047;-73
2021/12/08 11:06:30;;;;;;;7.72;2.03;;;;;;;;;;5098844;27;20047;-73
2021/12/08 11:08:57;;;;;;;6.88;1.50;;;;;;;;;;5124373;27;20063;-73
2021/12/08 11:11:28;;;;;;;7.07;2.00;;;;;;;;;;5111615;27;20142;-74
2021/12/08 11:13:57;;;;;;;7.22;1.65;;;;;;;;;;5119332;27;20110;-74
2021/12/08 11:16:26;;;;;;;12.80;2.38;;;;;;;;;;5107023;27;20577;-74
2021/12/08 11:19:02;;;;;;;5.32;2.03;;;;;;;;;;5107149;27;20065;-74
2021/12/08 11:21:35;;;;;;;8.43;2.60;;;;;;;;;;5106422;27;20479;-74
2021/12/08 11:24:03;;;;;;;5.55;2.08;;;;;;;;;;5103368;27;20039;-74
2021/12/08 11:26:30;;;;;;;7.00;1.88;;;;;;;;;;5088649;28;20455;-74
2021/12/08 11:29:00;;;;;;;7.75;1.73;;;;;;;;;;5106668;27;20040;-74
2021/12/08 11:31:28;;;;;;;6.70;1.80;;;;;;;;;;5104810;27;20071;-74
2021/12/08 11:34:00;;;;;;;15.15;2.53;;;;;;;;;;5111585;27;20058;-74
2021/12/08 11:36:27;;;;;;;8.77;2.60;;;;;;;;;;5107029;27;20065;-74
2021/12/08 11:38:54;;;;;;;7.30;2.00;;;;;;;;;;5106757;27;20050;-74
2021/12/08 11:41:26;;;;;;;6.13;1.73;;;;;;;;;;5113349;27;20125;-74
2021/12/08 11:43:54;;;;;;;5.25;1.88;;;;;;;;;;5091650;28;20097;-74
2021/12/08 11:46:22;;;;;;;7.25;1.83;;;;;;;;;;5096409;28;20050;-74
2021/12/08 11:48:53;;;;;;;14.43;2.25;;;;;;;;;;5096534;28;20047;-74
2021/12/08 11:51:19;;;;;;;10.27;2.20;;;;;;;;;;5087901;28;20103;-74
2021/12/08 11:53:46;;;;;;;12.13;2.47;;;;;;;;;;5085229;28;20382;-74
2021/12/08 11:56:30;;;;;;;11.73;2.08;;;;;;;;;;5087267;28;20040;-74
2021/12/08 11:58:56;;;;;;;7.65;2.15;;;;;;;;;;5092029;28;20047;-74
2021/12/08 12:01:23;;;;;;;9.20;2.22;;;;;;;;;;5094920;28;20036;-74
2021/12/08 12:03:49;;;;;;;8.32;3.20;;;;;;;;;;5100226;28;20039;-75
2021/12/08 12:06:15;;;;;;;9.90;2.47;;;;;;;;;;5104290;28;20031;-74
2021/12/08 12:08:41;;;;;;;10.88;2.40;;;;;;;;;;5097996;28;20140;-74
2021/12/08 12:11:08;;;;;;;12.35;2.42;;;;;;;;;;5108418;28;20066;-74
2021/12/08 12:13:34;;;;;;;7.18;2.05;;;;;;;;;;5107773;28;20126;-74
2021/12/08 12:16:00;;;;;;;7.60;2.50;;;;;;;;;;5105454;28;20585;-75
2021/12/08 12:18:33;;;;;;;8.43;2.10;;;;;;;;;;5104627;28;20043;-74
2021/12/08 12:21:12;;;;;;;8.65;1.85;;;;;;;;;;5093601;28;20080;-74
2021/12/08 12:23:52;;;;;;;4.53;2.13;;;;;;;;;;5092429;28;20063;-73
2021/12/08 12:26:34;;;;;;;6.28;2.47;;;;;;;;;;5092925;28;20047;-75
2021/12/08 12:29:19;;;;;;;7.78;3.42;;;;;;;;;;5097373;28;20039;-75
2021/12/08 12:31:47;;;;;;;7.50;2.58;;;;;;;;;;5089499;28;20048;-76
2021/12/08 12:34:26;;;;;;;7.53;2.28;;;;;;;;;;5096620;28;20130;-76
2021/12/08 12:36:53;;;;;;;6.57;2.10;;;;;;;;;;5104744;28;20447;-76
2021/12/08 12:39:22;;;;;;;9.45;2.72;;;;;;;;;;5111007;28;20040;-76
2021/12/08 12:42:00;;;;;;;6.07;2.13;;;;;;;;;;5093823;28;20048;-75
2021/12/08 12:44:28;;;;;;;7.25;1.85;;;;;;;;;;5114214;28;20042;-75
2021/12/08 12:46:54;;;;;;;;;;;;;;;;;;5124574;27;20063;-75
2021/12/08 12:49:28;;;;;;;13.93;2.42;;;;;;;;;;5118391;27;20338;-75
2021/12/08 12:51:59;;;;;;;5.90;1.73;;;;;;;;;;5101083;27;21857;-76
2021/12/08 12:54:26;;;;;;;7.25;2.72;;;;;;;;;;5127602;27;20039;-75
2021/12/08 12:56:53;;;;;;;9.80;2.20;;;;;;;;;;5126689;27;20515;-75
2021/12/08 12:59:21;;;;;;;10.77;2.25;;;;;;;;;;5110126;27;20055;-75
2021/12/08 13:02:04;;;;;;;7.40;2.58;;;;;;;;;;5101150;27;20058;-75
2021/12/08 13:04:34;;;;;;;6.30;1.88;;;;;;;;;;5128246;27;20054;-75
2021/12/08 13:07:04;;;;;;;8.70;1.83;;;;;;;;;;5121535;27;20035;-75
2021/12/08 13:09:37;;;;;;;7.93;2.35;;;;;;;;;;5131692;27;20062;-75
2021/12/08 13:12:11;;;;;;;13.38;1.90;;;;;;;;;;5122047;27;20071;-76
2021/12/08 13:14:37;;;;;;;11.73;2.30;;;;;;;;;;5133095;27;20039;-75
2021/12/08 13:17:10;;;;;;;6.70;1.60;;;;;;;;;;5119659;27;20043;-77
2021/12/08 13:19:41;;;;;;;7.88;1.73;;;;;;;;;;5104621;27;20039;-76
2021/12/08 13:22:19;;;;;;;11.40;2.40;;;;;;;;;;5112551;27;20104;-77
2021/12/08 13:24:45;;;;;;;9.45;2.30;;;;;;;;;;5121476;27;20138;-76
2021/12/08 13:27:28;;;;;;;9.70;2.00;;;;;;;;;;5119343;27;20046;-77
2021/12/08 13:30:09;;;;;;;8.82;2.33;;;;;;;;;;5117382;27;20039;-76
2021/12/08 13:32:46;;;;;;;10.75;2.15;;;;;;;;;;5111291;27;20035;-76
2021/12/08 13:35:33;;;;;;;5.18;1.90;;;;;;;;;;5112404;27;20040;-75
2021/12/08 13:38:00;;;;;;;8.40;2.08;;;;;;;;;;5112427;27;20392;-75
2021/12/08 13:40:43;;;;;;;8.88;2.00;;;;;;;;;;5120596;27;20078;-75
2021/12/08 13:43:09;;;;;;;7.20;1.98;;;;;;;;;;5108406;27;20044;-75
2021/12/08 13:45:42;;;;;;;9.32;2.22;;;;;;;;;;5107508;27;20974;-76
2021/12/08 13:48:09;;;;;;;5.22;1.92;;;;;;;;;;5122085;27;20062;-77
2021/12/08 13:50:36;;;;;;;8.30;2.45;;;;;;;;;;5095666;27;20042;-77
2021/12/08 13:53:06;;;;;;;8.15;1.80;;;;;;;;;;5131172;27;20047;-77
2021/12/08 13:55:33;;;;;;;6.07;2.10;;;;;;;;;;5115889;27;20489;-77
2021/12/08 13:58:00;;;;;;;6.13;1.58;;;;;;;;;;5133908;27;20648;-77
2021/12/08 14:00:28;;;;;;;6.22;1.67;;;;;;;;;;5119018;27;20361;-76
2021/12/08 14:02:58;;;;;;;6.28;2.15;;;;;;;;;;5125929;27;20046;-76
2021/12/08 14:05:28;;;;;;;8.48;1.95;;;;;;;;;;5130827;27;20074;-75
2021/12/08 14:07:56;;;;;;;5.03;1.40;;;;;;;;;;5133902;27;20027;-76
2021/12/08 14:10:25;;;;;;;17.83;2.20;;;;;;;;;;5112330;27;20137;-76
2021/12/08 14:12:53;;;;;;;4.90;1.33;;;;;;;;;;5130083;27;20031;-75
2021/12/08 14:15:25;;;;;;;8.25;2.15;;;;;;;;;;5112493;27;20036;-76
2021/12/08 14:17:51;;;;;;;3.83;1.33;;;;;;;;;;5112496;27;20374;-76
2021/12/08 14:20:28;;;;;;;10.07;1.83;;;;;;;;;;5111926;27;20118;-79
2021/12/08 14:22:54;;;;;;;10.48;1.88;;;;;;;;;;5119114;27;20115;-76
2021/12/08 14:25:31;;;;;;;3.97;1.55;;;;;;;;;;5114698;27;20048;-77
2021/12/08 14:27:57;;;;;;;4.75;1.65;;;;;;;;;;5119311;27;20043;-76
2021/12/08 14:30:23;;;;;;;11.45;2.00;;;;;;;;;;5119375;27;20046;-77
2021/12/08 14:32:59;;;;;;;7.57;1.70;;;;;;;;;;5122510;27;20481;-77
2021/12/08 14:35:26;;;;;;;10.07;2.30;;;;;;;;;;5121313;27;20047;-75
2021/12/08 14:38:00;;;;;;;5.20;2.03;;;;;;;;;;5111867;27;20055;-75
2021/12/08 14:40:26;;;;;;;8.40;1.73;;;;;;;;;;5118781;27;20039;-76
2021/12/08 14:42:52;;;;;;;8.35;1.70;;;;;;;;;;5110248;27;20081;-75
2021/12/08 14:45:18;;;;;;;7.65;1.77;;;;;;;;;;5107276;27;20551;-76
2021/12/08 14:47:51;;;;;;;11.68;1.52;;;;;;;;;;5092591;27;20053;-76
2021/12/08 14:50:22;;;;;;;11.55;1.83;;;;;;;;;;5108487;27;20043;-76
2021/12/08 14:52:49;;;;;;;7.45;1.90;;;;;;;;;;5100437;27;20038;-76
2021/12/08 14:55:21;;;;;;;6.93;1.40;;;;;;;;;;5125351;27;20546;-76
2021/12/08 14:57:49;;;;;;;5.80;1.58;;;;;;;;;;5093803;28;20126;-76
2021/12/08 15:00:18;;;;;;;9.52;3.15;;;;;;;;;;5089432;27;20122;-76
2021/12/08 15:03:03;;;;;;;6.95;1.40;;;;;;;;;;5113161;27;20102;-76
2021/12/08 15:05:30;;;;;;;6.18;1.70;;;;;;;;;;5102671;27;20047;-76
2021/12/08 15:07:56;;;;;;;8.20;1.73;;;;;;;;;;5124629;27;20060;-76
2021/12/08 15:10:25;;;;;;;6.90;1.70;;;;;;;;;;5121794;27;20380;-77
2021/12/08 15:12:51;;;;;;;4.05;1.60;;;;;;;;;;5125083;27;20442;-75
2021/12/08 15:15:20;;;;;;;9.30;1.50;;;;;;;;;;5117215;27;20043;-75
2021/12/08 15:17:47;;;;;;;7.90;1.95;;;;;;;;;;5107510;27;20036;-76
2021/12/08 15:20:14;;;;;;;4.95;2.20;;;;;;;;;;5111558;27;20044;-77
2021/12/08 15:22:43;;;;;;;9.48;1.85;;;;;;;;;;5122328;27;20047;-76
2021/12/08 15:25:10;;;;;;;4.70;1.45;;;;;;;;;;5124657;27;20047;-76
2021/12/08 15:27:38;;;;;;;10.73;1.87;;;;;;;;;;5125164;27;20046;-76
2021/12/08 15:30:06;;;;;;;9.40;1.50;;;;;;;;;;5104969;28;20123;-76